Latest Coastal Weather Observations for Coolangatta

IDQ60701

Issued at 8:52 pm EST Saturday 22 February 2020 (issued every 10 minutes, with the page automatically refreshed every 10 minutes)

About coastal observations | Map of coastal stations | Coastal observations for QLD | Marine services | Other Formats
Station Details ID: 040717 Name: COOLANGATTA Lat: -28.17 Lon: 153.51 Height: 4.0 m
Data from the previous 72 hours. | See also: Recent months at Coolangatta

Observations at Coolangatta are collected in the Queensland time zone, which does not include daylight savings during the summer period. Therefore 'Rain since 9am' totals and other values are based on the Queensland time zone.

Date/Time
EST
Wind Sea
Height
m
Swell Vis
km
Cloud Weather Temp
°C
Press
hPa
Rain since
9am
mm
Dir  Spd
kts
Gust
kts
Height
m
Period
s
Dir
22/08:30pm SE 14 20 - - - - 10 Partly cloudy - 24.7 1020.1 0.0
22/08:00pm SSE 13 17 - - - - 10 Partly cloudy - 24.5 1020.0 0.0
22/07:30pm SE 14 19 - - - - 10 Partly cloudy - 24.7 1019.5 0.0
22/07:00pm SE 11 19 - - - - 10 Partly cloudy - 24.6 1019.3 0.0
22/06:30pm SSE 10 12 - - - - 10 Partly cloudy - 24.5 1019.2 0.0
22/06:00pm SE 13 17 - - - - 10 Cloudy - 24.9 1019.3 0.0
22/05:30pm SE 13 19 - - - - 10 Partly cloudy - 25.1 1019.0 0.0
22/05:00pm SE 14 19 - - - - 10 Partly cloudy - 25.4 1018.9 0.0
22/04:30pm SE 12 19 - - - - 10 Partly cloudy - 25.8 1019.1 0.0
22/04:00pm SE 15 22 - - - - 10 Partly cloudy - 26.0 1018.8 0.0
22/03:30pm SE 17 22 - - - - 10 Partly cloudy - 25.9 1018.8 0.0
22/03:00pm SE 15 21 - - - - 10 Cloudy - 26.6 1019.2 0.0
22/02:30pm SE 15 22 - - - - 10 Partly cloudy - 26.9 1019.1 0.0
22/02:00pm SE 15 19 - - - - 10 Partly cloudy - 26.5 1019.3 0.0
22/01:30pm SE 16 22 - - - - 10 Partly cloudy - 27.1 1019.7 0.0
22/01:00pm SE 16 22 - - - - 10 Partly cloudy - 27.7 1019.9 0.0
22/12:30pm ESE 17 23 - - - - 10 Partly cloudy - 27.5 1020.0 0.0
22/12:00pm SE 13 20 - - - - 10 Cloudy - 27.6 1020.3 0.0
22/11:30am SE 17 25 - - - - 10 Partly cloudy - 26.5 1020.3 0.0
22/11:00am SE 17 21 - - - - 10 Partly cloudy - 26.5 1020.5 0.0
22/10:30am SE 15 18 - - - - 10 Partly cloudy - 25.9 1020.8 0.0
22/10:00am SE 14 20 - - - - 10 Partly cloudy - 27.4 1020.7 0.0
22/09:30am S 7 12 - - - - 10 Partly cloudy - 24.9 1020.5 0.0
22/09:00am SW 9 13 - - - - 10 Cloudy Showers 22.4 1020.2 2.2
22/08:30am SSW 5 7 - - - - 10 Partly cloudy - 22.7 1020.0 1.8
22/08:19am SSW 6 9 - - - - 10 Partly cloudy - 22.5 1019.9 1.8
22/08:00am SSW 9 14 - - - - 6 Partly cloudy - 22.1 1019.8 1.4
22/07:30am SW 6 9 - - - - 10 Partly cloudy - 24.3 1019.4 0.0
22/07:00am SW 4 6 - - - - 10 Partly cloudy - 23.3 1019.0 0.0
22/06:30am SSW 5 7 - - - - 10 Partly cloudy - 22.6 1018.5 0.0
22/06:00am SSW 3 4 - - - - 10 Cloudy - 21.9 1018.2 0.0
22/05:30am WSW 6 7 - - - - 10 Partly cloudy - 21.4 1017.9 0.0
22/05:00am WSW 4 5 - - - - 10 Partly cloudy - 21.3 1017.6 0.0
22/04:30am SW 3 4 - - - - 10 Partly cloudy - 21.4 1017.2 0.0
22/04:00am SW 3 4 - - - - 10 Partly cloudy - 21.2 1016.9 0.0
22/03:30am SSW 1 3 - - - - 10 Partly cloudy - 21.5 1016.8 0.0
22/03:00am SSW 2 4 - - - - 10 Mostly clear Drizzle 21.4 1016.6 0.0
22/02:30am SSE 5 6 - - - - 10 Partly cloudy - 22.1 1016.5 0.0
22/02:00am SW 3 5 - - - - 10 Partly cloudy - 21.7 1016.6 0.0
22/01:30am WSW 5 6 - - - - 10 Partly cloudy - 22.3 1016.6 0.0
22/01:00am WSW 5 6 - - - - 10 Partly cloudy - 22.5 1016.8 0.0
22/12:30am SW 5 7 - - - - 10 Partly cloudy - 22.5 1016.9 0.0
22/12:00am SW 4 5 - - - - 10 Cloudy - 22.9 1017.2 0.0
 
Date/Time
EST
Wind Sea
Height
m
Swell Vis
km
Cloud Weather Temp
°C
Press
hPa
Rain since
9am
mm
Dir  Spd
kts
Gust
kts
Height
m
Period
s
Dir
21/11:30pm SSE 3 6 - - - - 10 Partly cloudy - 23.7 1017.1 0.0
21/11:00pm ESE 8 10 - - - - 10 Cloudy - 24.8 1017.3 0.0
21/10:30pm S 4 5 - - - - 10 Cloudy - 23.3 1017.4 0.0
21/10:00pm S 5 6 - - - - 10 Cloudy - 23.4 1017.3 0.0
21/09:30pm SW 3 4 - - - - 10 Cloudy - 23.2 1017.2 0.0
21/09:00pm SSW 4 5 - - - - 10 Cloudy - 23.1 1016.8 0.0
21/08:30pm SSE 4 5 - - - - 10 Partly cloudy - 23.4 1016.6 0.0
21/08:00pm SE 7 10 - - - - 10 Partly cloudy - 24.6 1016.2 0.0
21/07:30pm SE 5 8 - - - - 10 Partly cloudy - 24.0 1015.7 0.0
21/07:00pm ESE 7 11 - - - - 10 Partly cloudy - 24.3 1015.0 0.0
21/06:30pm ESE 8 12 - - - - 10 Partly cloudy - 24.8 1014.7 0.0
21/06:00pm ESE 9 12 - - - - 10 Mostly cloudy - 25.2 1014.4 0.0
21/05:30pm ESE 9 13 - - - - 10 Partly cloudy - 25.5 1014.2 0.0
21/05:00pm ESE 9 12 - - - - 10 Cloudy - 25.8 1014.0 0.0
21/04:30pm ESE 9 11 - - - - 10 Partly cloudy - 25.7 1013.6 0.0
21/04:00pm ESE 9 13 - - - - 10 Partly cloudy - 25.9 1013.4 0.0
21/03:30pm SE 11 14 - - - - 10 Partly cloudy - 24.9 1013.4 0.0
21/03:00pm ESE 9 11 - - - - 10 Cloudy Drizzle 26.0 1013.7 0.0
21/02:30pm ESE 11 15 - - - - 10 Partly cloudy - 25.8 1013.8 0.0
21/02:00pm E 11 15 - - - - 10 Partly cloudy - 26.2 1014.0 0.0
21/01:30pm ENE 10 13 - - - - 10 Partly cloudy - 26.3 1014.1 0.0
21/01:00pm E 10 15 - - - - 10 Partly cloudy - 25.5 1014.3 0.0
21/12:30pm ESE 11 16 - - - - 10 Partly cloudy - 27.8 1014.4 0.0
21/12:00pm ESE 13 18 - - - - 10 Cloudy - 26.9 1014.7 0.0
21/11:30am ESE 12 15 - - - - 10 Partly cloudy - 28.0 1014.8 0.0
21/11:00am ESE 10 14 - - - - 10 Partly cloudy - 26.9 1015.0 0.0
21/10:30am ESE 9 14 - - - - 10 Partly cloudy - 27.9 1015.1 0.0
21/10:00am SE 7 10 - - - - 10 Partly cloudy - 25.9 1015.1 0.0
21/09:30am SSE 8 11 - - - - 10 Partly cloudy - 26.0 1015.1 0.0
21/09:00am SSW 5 8 - - - - 10 Partly cloudy - 26.2 1014.9 0.0
21/08:30am S 6 7 - - - - 10 Partly cloudy - 26.2 1014.6 0.0
21/08:00am S 7 11 - - - - 10 Partly cloudy - 24.8 1014.5 0.0
21/07:30am S 5 9 - - - - 10 Partly cloudy - 24.4 1014.2 0.0
21/07:00am SSW 7 10 - - - - 10 Partly cloudy - 23.2 1013.9 0.0
21/06:30am S 5 7 - - - - 10 Partly cloudy - 22.8 1013.6 0.0
21/06:00am SSW 7 10 - - - - 10 Cloudy - 22.7 1013.0 0.0
21/05:30am S 8 11 - - - - 10 Partly cloudy - 22.8 1012.7 0.0
21/05:00am S 7 11 - - - - 10 Partly cloudy - 22.8 1012.3 0.0
21/04:30am SSW 5 7 - - - - 10 - - 22.3 1011.9 0.0
21/04:00am S 5 8 - - - - 10 - - 22.6 1011.4 0.0
21/03:30am SW 5 7 - - - - 10 Partly cloudy - 22.7 1011.3 0.0
21/03:00am SW 5 7 - - - - 10 Cloudy - 23.2 1011.4 0.0
21/02:30am SW 5 6 - - - - 10 Partly cloudy - 23.2 1011.3 0.0
21/02:00am S 6 7 - - - - 10 Partly cloudy - 23.4 1011.4 0.0
21/01:30am S 6 7 - - - - 10 Partly cloudy - 23.2 1011.6 0.0
21/01:00am S 5 7 - - - - 10 Partly cloudy - 23.6 1011.8 0.0
21/12:30am SSW 6 7 - - - - 10 Partly cloudy - 24.2 1012.1 0.0
21/12:00am SSW 3 5 - - - - 10 Cloudy - 24.1 1012.4 0.0
 
Date/Time
EST
Wind Sea
Height
m
Swell Vis
km
Cloud Weather Temp
°C
Press
hPa
Rain since
9am
mm
Dir  Spd
kts
Gust
kts
Height
m
Period
s
Dir
20/11:30pm S 3 5 - - - - 10 Cloudy - 24.1 1012.4 0.0
20/11:00pm S 5 6 - - - - 10 Partly cloudy - 23.8 1012.4 0.0
20/10:30pm SSW 5 6 - - - - 10 Partly cloudy - 23.9 1012.4 0.0
20/10:00pm S 3 4 - - - - 10 Partly cloudy - 24.0 1012.2 0.0
20/09:30pm SW 5 7 - - - - 10 Partly cloudy - 24.6 1012.2 0.0
20/09:00pm SW 5 6 - - - - 10 Cloudy - 24.2 1012.0 0.0
20/08:30pm SSW 4 5 - - - - 10 Partly cloudy - 24.3 1011.5 0.0
20/08:00pm SSW 5 6 - - - - 10 - - 24.2 1011.0 0.0
20/07:30pm S 5 7 - - - - 10 - - 24.5 1010.4 0.0
20/07:00pm SSW 5 7 - - - - 10 - - 24.8 1009.8 0.0
20/06:30pm SSE 7 10 - - - - 10 - - 25.8 1009.5 0.0
20/06:00pm SE 8 11 - - - - 10 Mostly clear - 26.4 1009.0 0.0
20/05:30pm SE 10 13 - - - - 10 Partly cloudy - 27.1 1008.5 0.0
20/05:00pm SSE 10 14 - - - - 10 Partly cloudy - 26.8 1008.2 0.0
20/04:30pm SE 12 15 - - - - 10 Cloudy - 27.0 1007.9 0.0
20/04:00pm SE 11 14 - - - - 10 Partly cloudy - 27.5 1007.7 0.0
20/03:30pm SE 13 19 - - - - 10 Partly cloudy - 28.1 1007.4 0.0
20/03:00pm SE 11 16 - - - - 10 Cloudy - 27.5 1007.4 0.0
20/02:30pm SE 13 17 - - - - 10 Partly cloudy - 27.6 1007.4 0.0
20/02:00pm SE 13 17 - - - - 10 Partly cloudy - 27.4 1007.7 0.0
20/01:30pm SE 13 19 - - - - 10 Partly cloudy - 28.1 1007.7 0.0
20/01:00pm SE 15 20 - - - - 10 Partly cloudy - 28.1 1007.8 0.0
20/12:30pm ESE 16 20 - - - - 10 Partly cloudy - 28.1 1007.7 0.0
20/12:00pm SE 16 20 - - - - 10 Cloudy - 29.1 1007.9 0.0
20/11:30am SE 13 17 - - - - 10 Partly cloudy - 29.8 1008.1 0.0
20/11:00am SE 14 19 - - - - 10 Partly cloudy - 29.7 1008.3 0.0
20/10:30am SE 14 17 - - - - 10 Partly cloudy - 29.5 1008.4 0.0
20/10:00am SSE 10 17 - - - - 10 Partly cloudy - 28.3 1008.4 0.0
20/09:30am SE 12 17 - - - - 10 Partly cloudy - 28.5 1008.3 0.0
20/09:00am SSE 11 16 - - - - 10 Partly cloudy - 28.2 1008.2 0.0
20/08:30am S 11 17 - - - - 10 - - 27.5 1008.0 0.0
20/08:00am S 10 16 - - - - 10 - - 27.4 1007.8 0.0
20/07:30am S 10 14 - - - - 10 - - 26.8 1007.4 0.0
20/07:00am SSW 11 17 - - - - 10 - - 25.8 1007.2 0.0
20/06:30am S 9 13 - - - - 10 - - 25.3 1006.8 0.0
20/06:00am S 10 14 - - - - 10 - - 24.9 1006.3 0.0
20/05:30am S 11 15 - - - - 10 - - 24.9 1005.9 0.0
20/05:00am S 9 14 - - - - 10 - - 24.9 1005.5 0.0
20/04:30am S 10 14 - - - - 10 - - 25.3 1005.0 0.0
20/04:00am S 11 16 - - - - 10 - - 25.6 1004.8 0.0
20/03:30am SSE 6 9 - - - - 10 - - 25.2 1004.6 0.0
20/03:00am SE 7 9 - - - - 10 Partly cloudy - 25.5 1004.5 0.0
20/02:30am SSW 6 9 - - - - 10 Partly cloudy - 24.5 1004.5 0.0
20/02:00am ESE 4 5 - - - - 10 Partly cloudy - 25.5 1004.2 0.0
20/01:30am WNW 7 9 - - - - 10 Cloudy - 26.3 1004.2 0.0
20/01:00am WNW 10 13 - - - - 10 - - 26.2 1004.3 0.0
20/12:30am WNW 5 8 - - - - 10 - - 26.1 1004.9 0.0
20/12:00am NW 7 10 - - - - 10 - - 26.1 1004.6 0.0
 
Date/Time
EST
Wind Sea
Height
m
Swell Vis
km
Cloud Weather Temp
°C
Press
hPa
Rain since
9am
mm
Dir  Spd
kts
Gust
kts
Height
m
Period
s
Dir
19/11:30pm NW 10 13 - - - - 10 - - 26.6 1004.7 0.0
19/11:00pm NNW 8 14 - - - - 10 - - 27.1 1004.3 0.0
19/10:30pm NNW 6 9 - - - - 10 - - 26.7 1004.3 0.0
19/10:00pm NNW 8 11 - - - - 10 - - 26.9 1004.7 0.0
19/09:30pm N 11 14 - - - - 10 - - 26.9 1005.1 0.0
19/09:00pm N 11 14 - - - - 10 Mostly clear - 27.2 1005.2 0.0

Other formats

Comma delimited format used in spreadsheet applications
http://www.bom.gov.au/fwo/IDQ60701/IDQ60701.94592.axf

JavaScript Object Notation format (JSON) in row-major order
http://www.bom.gov.au/fwo/IDQ60701/IDQ60701.94592.json

Data quality

Most of these data are generated automatically and are frequently updated. Quality checks on data are not normally performed. It is possible for incorrect values to appear. Refer to information at About Latest Weather Observations and please check the disclaimer before using these data.